createdAt,value
2022-10-30T00:00:38.697Z,67.51
2022-10-30T00:03:05.805Z,67.56
2022-10-30T00:05:33.407Z,67.48
2022-10-30T00:08:00.782Z,67.39
2022-10-30T00:10:28.115Z,67.30
2022-10-30T00:12:55.289Z,67.41
2022-10-30T00:15:22.313Z,67.55
2022-10-30T00:17:49.273Z,67.77
2022-10-30T00:20:16.509Z,67.98
2022-10-30T00:22:43.473Z,68.08
2022-10-30T00:25:10.705Z,68.14
2022-10-30T00:27:37.959Z,68.08
2022-10-30T00:30:05.927Z,68.06
2022-10-30T00:32:32.872Z,68.11
2022-10-30T00:34:59.932Z,68.05
2022-10-30T00:37:26.972Z,68.05
2022-10-30T00:39:53.891Z,68.10
2022-10-30T00:42:20.961Z,68.12
2022-10-30T00:44:49.354Z,68.05
2022-10-30T00:47:31.232Z,68.06
2022-10-30T00:50:22.193Z,68.01
2022-10-30T00:53:05.481Z,68.17
2022-10-30T00:55:35.900Z,68.30
2022-10-30T00:58:04.068Z,68.39
2022-10-30T01:00:31.117Z,68.52
2022-10-30T01:02:58.786Z,68.78
2022-10-30T01:05:27.634Z,68.81
2022-10-30T01:07:55.051Z,68.88
2022-10-30T01:10:22.684Z,69.03
2022-10-30T01:12:50.138Z,69.05
2022-10-30T01:15:17.185Z,69.20
2022-10-30T01:17:52.322Z,69.31
2022-10-30T01:20:35.464Z,69.40
2022-10-30T01:23:31.984Z,69.33
2022-10-30T01:26:39.379Z,69.37
2022-10-30T01:29:15.462Z,69.42
2022-10-30T01:31:56.215Z,69.49
2022-10-30T01:34:28.161Z,69.59
2022-10-30T01:37:07.914Z,69.65
2022-10-30T01:39:37.038Z,69.69
2022-10-30T01:42:41.874Z,69.67
2022-10-30T01:45:09.505Z,69.81
2022-10-30T01:47:57.263Z,69.96
2022-10-30T01:50:50.500Z,70.07
2022-10-30T01:53:24.918Z,70.09
2022-10-30T01:56:02.318Z,70.20
2022-10-30T02:00:13.228Z,70.25
2022-10-30T02:02:41.379Z,70.29
2022-10-30T02:05:11.635Z,70.15
2022-10-30T02:07:39.141Z,70.35
2022-10-30T02:10:07.535Z,70.36
2022-10-30T02:12:34.772Z,70.57
2022-10-30T02:15:01.818Z,70.53
2022-10-30T02:17:29.276Z,70.53
2022-10-30T02:19:56.323Z,70.50
2022-10-30T02:22:25.178Z,70.39
2022-10-30T02:24:52.572Z,70.41
2022-10-30T02:27:20.868Z,70.39
2022-10-30T02:29:49.632Z,70.45
2022-10-30T02:32:17.192Z,70.60
2022-10-30T02:34:44.853Z,70.52
2022-10-30T02:37:11.902Z,70.25
2022-10-30T02:39:39.495Z,70.36
2022-10-30T02:42:06.609Z,70.35
2022-10-30T02:44:34.297Z,70.38
2022-10-30T02:47:01.625Z,70.34
2022-10-30T02:49:28.676Z,70.52
2022-10-30T02:51:55.722Z,70.22
2022-10-30T02:54:22.972Z,70.07
2022-10-30T02:56:50.021Z,69.97
2022-10-30T02:59:17.002Z,69.93
2022-10-30T03:01:44.313Z,69.89
2022-10-30T03:04:11.468Z,70.00
2022-10-30T03:06:38.516Z,70.05
2022-10-30T03:09:05.664Z,69.96
2022-10-30T03:11:33.773Z,70.04
2022-10-30T03:14:00.781Z,69.94
2022-10-30T03:16:31.209Z,69.95
2022-10-30T03:18:58.259Z,69.87
2022-10-30T03:21:26.306Z,69.98
2022-10-30T03:23:54.032Z,70.02
2022-10-30T03:26:21.756Z,70.06
2022-10-30T03:28:54.412Z,69.97
2022-10-30T03:31:21.726Z,69.91
2022-10-30T03:33:57.675Z,70.05
2022-10-30T03:36:25.472Z,70.13
2022-10-30T03:38:52.656Z,70.30
2022-10-30T03:41:19.908Z,70.37
2022-10-30T03:43:47.166Z,70.49
2022-10-30T03:46:14.210Z,70.49
2022-10-30T03:48:41.258Z,70.43
2022-10-30T03:51:09.269Z,70.55
2022-10-30T03:53:36.380Z,70.63
2022-10-30T03:56:04.459Z,70.50
2022-10-30T03:58:52.116Z,70.50
2022-10-30T04:01:21.181Z,70.39
2022-10-30T04:03:53.747Z,70.39
2022-10-30T04:06:21.253Z,70.31
2022-10-30T04:08:48.826Z,70.36
2022-10-30T04:11:16.883Z,70.36
2022-10-30T04:13:44.293Z,70.53
2022-10-30T04:16:13.082Z,70.61
2022-10-30T04:18:41.461Z,70.65
2022-10-30T04:21:08.614Z,70.70
2022-10-30T04:23:36.120Z,70.73
2022-10-30T04:26:04.342Z,70.87
2022-10-30T04:28:31.526Z,70.99
2022-10-30T04:30:59.151Z,71.02
2022-10-30T04:33:26.406Z,71.00
2022-10-30T04:36:12.129Z,71.00
2022-10-30T04:42:13.963Z,70.89
2022-10-30T04:45:15.281Z,70.92
2022-10-30T04:48:03.285Z,71.01
2022-10-30T04:50:32.033Z,71.19
2022-10-30T04:53:03.969Z,71.28
2022-10-30T05:03:39.137Z,71.76
2022-10-30T05:06:25.132Z,71.81
2022-10-30T05:08:52.279Z,71.83
2022-10-30T05:11:29.909Z,71.84
2022-10-30T05:13:57.023Z,71.83
2022-10-30T05:16:24.108Z,71.91
2022-10-30T05:18:51.632Z,71.92
2022-10-30T05:21:18.810Z,71.96
2022-10-30T05:23:46.544Z,71.90
2022-10-30T05:26:13.589Z,71.98
2022-10-30T05:28:42.249Z,71.84
2022-10-30T05:31:09.246Z,71.93
2022-10-30T05:33:51.526Z,71.94
2022-10-30T05:36:19.611Z,72.02
2022-10-30T05:38:47.361Z,72.12
2022-10-30T05:41:21.268Z,72.02
2022-10-30T05:43:48.638Z,71.98
2022-10-30T05:46:15.770Z,71.96
2022-10-30T05:48:43.025Z,71.90
2022-10-30T05:51:10.060Z,71.93
2022-10-30T05:53:39.987Z,72.05
2022-10-30T05:56:09.002Z,72.04
2022-10-30T05:58:36.251Z,71.95
2022-10-30T06:01:07.799Z,71.93
2022-10-30T06:03:39.549Z,71.77
2022-10-30T06:06:06.998Z,71.94
2022-10-30T06:08:33.946Z,71.96
2022-10-30T06:11:05.603Z,72.08
2022-10-30T06:13:38.081Z,72.02
2022-10-30T06:16:11.592Z,71.98
2022-10-30T06:19:05.142Z,71.96
2022-10-30T06:21:32.391Z,71.88
2022-10-30T06:24:22.008Z,71.86
2022-10-30T06:27:15.138Z,72.08
2022-10-30T06:29:42.500Z,72.04
2022-10-30T06:32:09.533Z,72.14
2022-10-30T06:34:36.989Z,71.78
2022-10-30T06:37:04.399Z,71.55
2022-10-30T06:39:31.696Z,71.33
2022-10-30T06:42:17.483Z,71.09
2022-10-30T06:44:54.868Z,71.10
2022-10-30T06:47:21.833Z,70.81
2022-10-30T06:49:48.863Z,70.45
2022-10-30T06:52:16.325Z,69.77
2022-10-30T06:54:43.421Z,69.12
2022-10-30T06:57:39.799Z,68.83
2022-10-30T07:00:20.889Z,68.48
2022-10-30T07:03:09.019Z,67.90
2022-10-30T07:05:36.104Z,67.73
2022-10-30T07:08:03.934Z,66.93
2022-10-30T07:10:31.108Z,66.43
2022-10-30T07:13:21.092Z,65.92
2022-10-30T07:16:17.403Z,65.60
2022-10-30T07:18:49.363Z,65.22
2022-10-30T07:21:16.820Z,64.93
2022-10-30T07:23:43.933Z,64.56
2022-10-30T07:26:19.621Z,64.78
2022-10-30T07:28:47.279Z,64.72
2022-10-30T07:31:42.162Z,64.60
2022-10-30T07:34:35.956Z,64.13
2022-10-30T07:37:26.367Z,64.01
2022-10-30T07:40:01.313Z,64.34
2022-10-30T07:42:47.168Z,64.60
2022-10-30T07:45:52.616Z,64.38
2022-10-30T07:48:38.109Z,64.52
2022-10-30T07:51:23.618Z,64.04
2022-10-30T07:53:50.721Z,64.00
2022-10-30T07:56:18.286Z,63.96
2022-10-30T07:58:54.266Z,64.05
2022-10-30T08:01:40.010Z,64.13
2022-10-30T08:04:24.580Z,64.47
2022-10-30T08:06:56.133Z,64.66
2022-10-30T08:09:23.201Z,65.01
2022-10-30T08:11:50.246Z,65.06
2022-10-30T08:14:17.274Z,64.83
2022-10-30T08:16:44.365Z,64.92
2022-10-30T08:19:11.574Z,64.89
2022-10-30T08:21:38.828Z,64.97
2022-10-30T08:24:12.122Z,65.35
2022-10-30T08:26:40.867Z,65.51
2022-10-30T08:29:10.251Z,65.71
2022-10-30T08:31:38.640Z,65.73
2022-10-30T08:34:35.637Z,65.93
2022-10-30T08:37:08.170Z,66.20
2022-10-30T08:39:35.772Z,66.67
2022-10-30T08:42:32.107Z,67.45
2022-10-30T08:45:04.451Z,67.81
2022-10-30T08:47:39.238Z,68.02
2022-10-30T08:50:07.671Z,68.31
2022-10-30T08:52:36.071Z,68.56
2022-10-30T08:55:03.145Z,68.96
2022-10-30T08:57:38.283Z,69.34
2022-10-30T09:00:06.222Z,69.82
2022-10-30T09:02:59.268Z,70.44
2022-10-30T09:05:46.501Z,70.60
2022-10-30T09:08:35.969Z,70.88
2022-10-30T09:11:08.563Z,71.12
2022-10-30T09:13:40.732Z,71.23
2022-10-30T09:16:08.273Z,71.15
2022-10-30T09:18:36.558Z,71.24
2022-10-30T09:21:05.176Z,71.12
2022-10-30T09:23:40.069Z,70.78
2022-10-30T09:26:37.233Z,70.53
2022-10-30T09:29:10.666Z,70.49
2022-10-30T09:31:56.232Z,70.41
2022-10-30T09:34:24.612Z,70.29
2022-10-30T09:36:58.071Z,70.07
2022-10-30T09:39:25.714Z,69.71
2022-10-30T09:42:11.328Z,69.40
2022-10-30T09:45:30.545Z,68.70
2022-10-30T09:48:03.370Z,68.23
2022-10-30T09:50:56.161Z,67.34
2022-10-30T09:53:30.611Z,67.07
2022-10-30T09:56:01.884Z,66.60
2022-10-30T09:58:47.984Z,66.28
2022-10-30T10:01:49.095Z,66.09
2022-10-30T10:04:33.627Z,65.57
2022-10-30T10:07:22.952Z,65.30
2022-10-30T10:10:00.376Z,65.44
2022-10-30T10:12:50.492Z,65.15
2022-10-30T10:15:40.946Z,65.01
2022-10-30T10:18:26.924Z,64.73
2022-10-30T10:20:55.808Z,64.56
2022-10-30T10:23:44.819Z,64.30
2022-10-30T10:26:47.024Z,64.59
2022-10-30T10:29:29.121Z,64.73
2022-10-30T10:32:13.364Z,64.78
2022-10-30T10:34:55.430Z,64.58
2022-10-30T10:37:40.943Z,64.54
2022-10-30T10:40:26.084Z,64.79
2022-10-30T10:43:09.933Z,64.98
2022-10-30T10:46:08.035Z,64.98
2022-10-30T10:48:59.794Z,64.87
2022-10-30T10:51:32.164Z,64.79
2022-10-30T10:54:04.844Z,64.94
2022-10-30T10:56:33.198Z,64.92
2022-10-30T10:59:21.033Z,64.72
2022-10-30T11:01:57.009Z,64.58
2022-10-30T11:04:42.150Z,65.02
2022-10-30T11:07:15.043Z,64.98
2022-10-30T11:10:05.276Z,64.95
2022-10-30T11:12:38.508Z,64.82
2022-10-30T11:15:29.664Z,64.59
2022-10-30T11:18:10.099Z,64.75
2022-10-30T11:21:11.995Z,64.91
2022-10-30T11:23:40.762Z,65.30
2022-10-30T11:26:23.138Z,65.86
2022-10-30T11:29:09.258Z,66.50
2022-10-30T11:31:40.435Z,66.91
2022-10-30T11:34:19.967Z,67.14
2022-10-30T11:36:59.260Z,67.15
2022-10-30T11:39:34.425Z,67.08
2022-10-30T11:42:23.619Z,67.57
2022-10-30T11:44:50.799Z,67.93
2022-10-30T11:47:23.124Z,68.13
2022-10-30T11:50:04.068Z,68.51
2022-10-30T11:52:31.411Z,68.46
2022-10-30T11:54:59.054Z,68.62
2022-10-30T11:57:31.917Z,68.73
2022-10-30T12:00:04.706Z,68.65
2022-10-30T12:02:43.190Z,68.53
2022-10-30T12:05:35.420Z,68.20
2022-10-30T12:08:11.248Z,68.06
2022-10-30T12:11:07.417Z,68.00
2022-10-30T12:13:39.042Z,68.19
2022-10-30T12:16:18.187Z,68.07
2022-10-30T12:19:04.648Z,68.17
2022-10-30T12:21:40.123Z,68.12
2022-10-30T12:24:09.565Z,67.96
2022-10-30T12:26:38.799Z,67.64
2022-10-30T12:29:08.796Z,67.52
2022-10-30T12:31:42.070Z,67.62
2022-10-30T12:36:53.409Z,67.34
2022-10-30T12:39:32.454Z,67.41
2022-10-30T12:42:00.444Z,67.27
2022-10-30T12:44:41.633Z,67.15
2022-10-30T12:47:18.474Z,67.06
2022-10-30T12:49:48.654Z,67.19
2022-10-30T12:52:56.069Z,67.21
2022-10-30T12:55:30.996Z,67.30
2022-10-30T12:58:01.073Z,67.28
2022-10-30T13:00:27.946Z,67.24
2022-10-30T13:02:58.314Z,67.04
2022-10-30T13:05:35.202Z,67.13
2022-10-30T13:08:19.515Z,67.06
2022-10-30T13:10:49.630Z,66.77
2022-10-30T13:13:21.538Z,66.90
2022-10-30T13:15:53.388Z,66.80
2022-10-30T13:18:22.112Z,66.48
2022-10-30T13:21:18.111Z,66.10
2022-10-30T13:23:51.037Z,66.05
2022-10-30T13:26:39.405Z,66.10
2022-10-30T13:29:31.517Z,66.06
2022-10-30T13:32:25.045Z,66.18
2022-10-30T13:34:51.824Z,66.46
2022-10-30T13:37:28.008Z,66.81
2022-10-30T13:40:34.207Z,67.05
2022-10-30T13:43:43.348Z,67.56
2022-10-30T13:46:17.651Z,68.01
2022-10-30T13:48:53.960Z,68.29
2022-10-30T13:51:26.956Z,68.46
2022-10-30T13:54:01.817Z,68.76
2022-10-30T13:56:28.702Z,69.02
2022-10-30T13:59:07.822Z,69.29
2022-10-30T14:02:13.709Z,69.49
2022-10-30T14:04:52.930Z,69.69
2022-10-30T14:07:28.919Z,69.88
2022-10-30T14:09:58.389Z,70.15
2022-10-30T14:12:46.835Z,70.19
2022-10-30T14:17:31.603Z,70.48
2022-10-30T14:20:26.465Z,70.68
2022-10-30T14:23:11.457Z,70.91
2022-10-30T14:29:42.326Z,71.32
2022-10-30T14:36:07.071Z,71.66
2022-10-30T14:38:35.286Z,71.86
2022-10-30T14:41:27.991Z,71.94
2022-10-30T14:44:04.565Z,72.05
2022-10-30T14:46:34.480Z,72.27
2022-10-30T14:49:30.955Z,72.43
2022-10-30T14:52:13.527Z,72.77
2022-10-30T14:55:09.861Z,72.90
2022-10-30T14:57:45.957Z,73.06
2022-10-30T15:00:22.291Z,73.18
2022-10-30T15:02:52.870Z,73.34
2022-10-30T15:05:41.192Z,73.63
2022-10-30T15:08:23.566Z,73.70
2022-10-30T15:10:59.952Z,73.72
2022-10-30T15:13:27.388Z,73.77
2022-10-30T15:16:02.435Z,73.96
2022-10-30T15:18:30.750Z,74.01
2022-10-30T15:21:02.782Z,74.18
2022-10-30T15:23:30.642Z,74.06
2022-10-30T15:26:06.424Z,73.98
2022-10-30T15:28:36.214Z,74.03
2022-10-30T15:31:05.051Z,74.17
2022-10-30T15:33:33.258Z,74.30
2022-10-30T15:36:00.210Z,74.46
2022-10-30T15:38:27.478Z,74.41
2022-10-30T15:40:59.319Z,74.42
2022-10-30T15:43:31.995Z,74.51
2022-10-30T15:45:59.257Z,74.64
2022-10-30T15:48:31.822Z,74.72
2022-10-30T15:50:58.764Z,74.87
2022-10-30T15:53:28.581Z,74.91
2022-10-30T15:55:58.525Z,74.99
2022-10-30T15:58:25.552Z,75.05
2022-10-30T16:01:00.567Z,75.12
2022-10-30T16:03:28.260Z,75.24
2022-10-30T16:06:16.198Z,75.33
2022-10-30T16:08:44.962Z,75.39
2022-10-30T16:11:12.537Z,75.29
2022-10-30T16:13:39.544Z,75.24
2022-10-30T16:16:07.779Z,75.39
2022-10-30T16:18:36.223Z,75.47
2022-10-30T16:21:06.437Z,75.42
2022-10-30T16:23:38.404Z,75.30
2022-10-30T16:26:05.800Z,75.33
2022-10-30T16:28:35.677Z,75.43
2022-10-30T16:31:04.667Z,75.65
2022-10-30T16:33:33.147Z,75.55
2022-10-30T16:36:00.293Z,75.45
2022-10-30T16:38:29.518Z,75.37
2022-10-30T16:40:56.744Z,75.33
2022-10-30T16:43:34.133Z,75.25
2022-10-30T16:46:16.579Z,75.10
2022-10-30T16:49:01.302Z,74.74
2022-10-30T16:51:28.452Z,74.59
2022-10-30T16:53:57.767Z,74.46
2022-10-30T16:56:31.768Z,74.46
2022-10-30T16:59:07.102Z,74.50
2022-10-30T17:01:35.080Z,74.73
2022-10-30T17:04:02.836Z,74.83
2022-10-30T17:06:43.605Z,74.98
2022-10-30T17:09:22.667Z,75.08
2022-10-30T17:12:12.241Z,75.00
2022-10-30T17:14:48.573Z,75.09
2022-10-30T17:17:36.073Z,75.22
2022-10-30T17:20:06.782Z,75.23
2022-10-30T17:22:36.977Z,75.24
2022-10-30T17:25:17.517Z,75.26
2022-10-30T17:27:47.240Z,75.42
2022-10-30T17:30:40.432Z,75.50
2022-10-30T17:33:23.924Z,75.61
2022-10-30T17:35:51.313Z,75.59
2022-10-30T17:38:18.804Z,75.55
2022-10-30T17:40:45.883Z,75.78
2022-10-30T17:43:15.560Z,76.02
2022-10-30T17:45:43.356Z,76.13
2022-10-30T17:48:16.968Z,76.10
2022-10-30T17:50:47.655Z,76.09
2022-10-30T17:53:22.109Z,76.20
2022-10-30T17:55:56.821Z,76.37
2022-10-30T17:58:36.477Z,76.49
2022-10-30T18:01:03.600Z,76.56
2022-10-30T18:03:30.672Z,76.62
2022-10-30T18:05:58.959Z,76.82
2022-10-30T18:08:26.099Z,76.98
2022-10-30T18:10:53.248Z,77.12
2022-10-30T18:13:20.503Z,77.01
2022-10-30T18:15:54.021Z,76.86
2022-10-30T18:18:21.045Z,77.13
2022-10-30T18:20:51.164Z,77.56
2022-10-30T18:26:15.131Z,77.83
2022-10-30T18:28:42.206Z,77.65
2022-10-30T18:31:10.995Z,77.47
2022-10-30T18:33:38.044Z,77.61
2022-10-30T18:36:12.769Z,77.57
2022-10-30T18:38:39.957Z,77.59
2022-10-30T18:41:07.073Z,77.37
2022-10-30T18:43:34.114Z,77.34
2022-10-30T18:46:01.060Z,77.41
2022-10-30T18:48:28.215Z,77.46
2022-10-30T18:50:55.157Z,77.48
2022-10-30T18:53:22.200Z,77.40
2022-10-30T18:55:49.474Z,77.41
2022-10-30T18:58:16.399Z,77.42
2022-10-30T19:01:10.491Z,77.49
2022-10-30T19:03:35.358Z,77.43
2022-10-30T19:06:02.746Z,77.25
2022-10-30T19:08:30.393Z,77.22
2022-10-30T19:10:58.467Z,77.00
2022-10-30T19:13:25.566Z,76.92
2022-10-30T19:15:59.878Z,76.84
2022-10-30T19:18:28.882Z,76.61
2022-10-30T19:21:04.553Z,76.50
2022-10-30T19:23:35.824Z,76.40
2022-10-30T19:26:02.928Z,76.44
2022-10-30T19:28:31.347Z,76.50
2022-10-30T19:30:58.393Z,76.66
2022-10-30T19:33:28.311Z,76.73
2022-10-30T19:36:04.772Z,76.99
2022-10-30T19:38:32.543Z,77.16
2022-10-30T19:41:00.307Z,77.34
2022-10-30T19:43:28.184Z,77.33
2022-10-30T19:45:57.058Z,77.32
2022-10-30T19:48:55.483Z,77.45
2022-10-30T19:51:12.155Z,77.55
2022-10-30T19:53:40.353Z,77.63
2022-10-30T19:56:09.598Z,77.64
2022-10-30T19:58:36.579Z,77.59
2022-10-30T20:01:03.680Z,77.57
2022-10-30T20:03:30.777Z,77.74
2022-10-30T20:05:58.172Z,77.84
2022-10-30T20:08:25.878Z,77.93
2022-10-30T20:10:57.424Z,77.91
2022-10-30T20:13:25.197Z,77.84
2022-10-30T20:15:53.169Z,77.93
2022-10-30T20:18:24.921Z,78.03
2022-10-30T20:20:55.903Z,77.94
2022-10-30T20:23:23.319Z,77.87
2022-10-30T20:25:52.127Z,77.90
2022-10-30T20:28:38.813Z,78.02
2022-10-30T20:31:06.577Z,78.07
2022-10-30T20:33:36.205Z,78.02
2022-10-30T20:36:03.334Z,77.90
2022-10-30T20:38:33.094Z,77.96
2022-10-30T20:41:02.184Z,77.94
2022-10-30T20:43:33.285Z,78.03
2022-10-30T20:46:00.541Z,77.94
2022-10-30T20:48:27.690Z,77.81
2022-10-30T20:50:55.919Z,77.79
2022-10-30T20:53:23.007Z,77.83
2022-10-30T20:55:50.061Z,77.89
2022-10-30T20:58:17.027Z,77.86
2022-10-30T21:00:44.230Z,77.66
2022-10-30T21:03:14.509Z,77.64
2022-10-30T21:05:44.663Z,77.74
2022-10-30T21:08:13.943Z,77.75
2022-10-30T21:10:41.052Z,77.69
2022-10-30T21:13:09.695Z,77.68
2022-10-30T21:15:39.859Z,78.01
2022-10-30T21:18:07.423Z,77.87
2022-10-30T21:20:34.554Z,77.74
2022-10-30T21:23:01.515Z,77.44
2022-10-30T21:25:29.059Z,77.14
2022-10-30T21:27:59.177Z,77.05
2022-10-30T21:30:26.230Z,77.12
2022-10-30T21:32:53.379Z,77.14
2022-10-30T21:35:20.626Z,77.29
2022-10-30T21:37:47.673Z,77.02
2022-10-30T21:40:14.718Z,76.96
2022-10-30T21:42:41.772Z,77.06
2022-10-30T21:45:09.841Z,77.02
2022-10-30T21:47:37.192Z,76.91
2022-10-30T21:50:07.863Z,76.73
2022-10-30T21:52:38.083Z,76.70
2022-10-30T21:55:05.604Z,76.77
2022-10-30T21:57:32.557Z,76.95
2022-10-30T22:00:01.799Z,76.81
2022-10-30T22:02:34.563Z,76.66
2022-10-30T22:05:01.685Z,76.61
2022-10-30T22:07:28.731Z,76.70
2022-10-30T22:09:55.769Z,76.65
2022-10-30T22:12:22.678Z,76.61
2022-10-30T22:14:49.662Z,76.56
2022-10-30T22:17:16.833Z,76.59
2022-10-30T22:19:43.887Z,76.65
2022-10-30T22:22:11.388Z,76.74
2022-10-30T22:24:38.774Z,76.75
2022-10-30T22:27:06.026Z,76.58
2022-10-30T22:29:32.972Z,76.61
2022-10-30T22:31:59.935Z,76.60
2022-10-30T22:34:29.297Z,76.62
2022-10-30T22:36:56.262Z,76.66
2022-10-30T22:39:26.177Z,76.62
2022-10-30T22:41:53.334Z,76.49
2022-10-30T22:44:23.786Z,76.43
2022-10-30T22:46:51.012Z,76.48
2022-10-30T22:49:18.468Z,76.54
2022-10-30T22:51:45.613Z,76.35
2022-10-30T22:54:12.664Z,76.39
2022-10-30T22:56:39.844Z,76.15
2022-10-30T22:59:08.736Z,76.26
2022-10-30T23:01:36.485Z,76.28
2022-10-30T23:04:04.331Z,76.06
2022-10-30T23:06:31.593Z,75.82
2022-10-30T23:09:00.234Z,75.73
2022-10-30T23:11:27.516Z,75.56
2022-10-30T23:13:54.546Z,75.55
2022-10-30T23:16:23.147Z,75.42
2022-10-30T23:18:50.879Z,75.27
2022-10-30T23:21:20.793Z,75.26
2022-10-30T23:23:47.793Z,75.23
2022-10-30T23:26:19.940Z,75.25
2022-10-30T23:28:47.395Z,75.45
2022-10-30T23:31:20.487Z,75.43
2022-10-30T23:33:49.080Z,75.45
2022-10-30T23:36:16.544Z,75.41
2022-10-30T23:38:43.668Z,75.53
2022-10-30T23:41:10.720Z,75.44
2022-10-30T23:43:37.693Z,75.46
2022-10-30T23:49:46.104Z,75.34
2022-10-30T23:52:14.138Z,75.28
2022-10-30T23:57:49.261Z,74.99
